createdAt,value
2022-09-15T00:02:22.240Z,96554.38
2022-09-15T00:04:48.654Z,96560.88
2022-09-15T00:07:15.865Z,96552.69
2022-09-15T00:09:42.272Z,96554.59
2022-09-15T00:12:08.688Z,96549.28
2022-09-15T00:14:35.105Z,96550.41
2022-09-15T00:17:01.620Z,96550.81
2022-09-15T00:19:28.107Z,96550.81
2022-09-15T00:21:54.521Z,96545.28
2022-09-15T00:24:21.007Z,96556.47
2022-09-15T00:26:47.463Z,96545.41
2022-09-15T00:29:13.900Z,96537.34
2022-09-15T00:31:40.289Z,96536.28
2022-09-15T00:34:07.189Z,96532.31
2022-09-15T00:36:34.018Z,96530.81
2022-09-15T00:39:00.983Z,96531.56
2022-09-15T00:41:27.785Z,96528.53
2022-09-15T00:44:00.658Z,96526.44
2022-09-15T00:46:40.013Z,96516.75
2022-09-15T00:49:29.523Z,96519.50
2022-09-15T00:52:03.880Z,96510.88
2022-09-15T00:54:41.981Z,96514.84
2022-09-15T00:57:14.335Z,96514.66
2022-09-15T00:59:42.690Z,96513.44
2022-09-15T01:02:22.350Z,96516.94
2022-09-15T01:04:56.012Z,96514.84
2022-09-15T01:07:32.687Z,96507.03
2022-09-15T01:10:02.762Z,96512.03
2022-09-15T01:12:29.185Z,96510.56
2022-09-15T01:14:55.680Z,96507.03
2022-09-15T01:17:49.879Z,96507.03
2022-09-15T01:21:07.442Z,96511.06
2022-09-15T01:23:36.912Z,96515.44
2022-09-15T01:26:36.691Z,96513.81
2022-09-15T01:29:36.910Z,96513.81
2022-09-15T01:32:28.323Z,96507.03
2022-09-15T01:35:20.442Z,96498.84
2022-09-15T01:37:53.485Z,96499.41
2022-09-15T01:40:22.990Z,96502.38
2022-09-15T01:42:51.048Z,96502.38
2022-09-15T01:45:29.069Z,96519.44
2022-09-15T01:47:58.512Z,96514.09
2022-09-15T01:50:31.488Z,96504.75
2022-09-15T01:53:02.798Z,96512.47
2022-09-15T01:56:00.874Z,96505.50
2022-09-15T01:58:27.303Z,96509.31
2022-09-15T02:01:00.234Z,96506.81
2022-09-15T02:03:35.064Z,96502.53
2022-09-15T02:06:07.233Z,96504.03
2022-09-15T02:08:49.856Z,96496.88
2022-09-15T02:11:19.681Z,96485.25
2022-09-15T02:13:59.840Z,96493.84
2022-09-15T02:16:32.127Z,96487.75
2022-09-15T02:19:34.314Z,96487.75
2022-09-15T02:22:08.048Z,96493.84
2022-09-15T02:24:40.862Z,96489.09
2022-09-15T02:27:22.176Z,96482.97
2022-09-15T02:29:52.538Z,96481.66
2022-09-15T02:32:23.645Z,96475.59
2022-09-15T02:34:53.283Z,96484.97
2022-09-15T02:37:21.886Z,96490.00
2022-09-15T02:39:58.025Z,96498.25
2022-09-15T02:42:30.246Z,96500.88
2022-09-15T02:44:57.690Z,96492.50
2022-09-15T02:47:25.288Z,96489.84
2022-09-15T02:49:52.022Z,96495.63
2022-09-15T02:52:18.457Z,96503.44
2022-09-15T02:54:44.862Z,96505.94
2022-09-15T02:57:11.528Z,96502.69
2022-09-15T02:59:56.379Z,96501.06
2022-09-15T03:02:23.542Z,96495.34
2022-09-15T03:04:50.462Z,96496.03
2022-09-15T03:07:18.504Z,96493.84
2022-09-15T03:09:45.285Z,96501.84
2022-09-15T03:12:11.734Z,96504.59
2022-09-15T03:14:38.317Z,96494.78
2022-09-15T03:17:04.986Z,96500.88
2022-09-15T03:19:31.783Z,96499.91
2022-09-15T03:21:58.192Z,96502.78
2022-09-15T03:24:24.574Z,96502.28
2022-09-15T03:26:50.996Z,96501.78
2022-09-15T03:29:17.492Z,96495.50
2022-09-15T03:31:44.150Z,96494.00
2022-09-15T03:34:10.670Z,96505.03
2022-09-15T03:36:38.225Z,96492.16
2022-09-15T03:39:04.661Z,96487.97
2022-09-15T03:41:31.040Z,96491.84
2022-09-15T03:43:57.700Z,96490.78
2022-09-15T03:46:24.136Z,96488.31
2022-09-15T03:48:50.530Z,96491.75
2022-09-15T03:51:16.964Z,96490.03
2022-09-15T03:53:43.413Z,96480.94
2022-09-15T03:56:26.245Z,96495.50
2022-09-15T03:58:53.232Z,96481.91
2022-09-15T04:01:20.811Z,96479.31
2022-09-15T04:03:50.936Z,96490.09
2022-09-15T04:06:19.750Z,96485.81
2022-09-15T04:08:46.594Z,96491.25
2022-09-15T04:11:13.910Z,96484.84
2022-09-15T04:13:41.996Z,96483.53
2022-09-15T04:16:12.654Z,96483.88
2022-09-15T04:18:39.219Z,96487.34
2022-09-15T04:21:13.233Z,96472.53
2022-09-15T04:23:41.115Z,96477.13
2022-09-15T04:26:14.345Z,96471.28
2022-09-15T04:28:40.808Z,96474.97
2022-09-15T04:31:12.800Z,96472.97
2022-09-15T04:33:41.093Z,96476.69
2022-09-15T04:36:21.085Z,96467.16
2022-09-15T04:38:48.110Z,96475.75
2022-09-15T04:41:15.125Z,96467.84
2022-09-15T04:43:43.298Z,96473.66
2022-09-15T04:46:11.268Z,96474.63
2022-09-15T04:48:37.907Z,96470.06
2022-09-15T04:51:06.698Z,96470.06
2022-09-15T04:53:33.761Z,96468.31
2022-09-15T04:56:08.358Z,96461.78
2022-09-15T04:58:39.933Z,96467.56
2022-09-15T05:01:18.308Z,96462.53
2022-09-15T05:03:46.463Z,96463.56
2022-09-15T05:06:15.584Z,96457.06
2022-09-15T05:08:42.085Z,96459.34
2022-09-15T05:11:11.724Z,96459.16
2022-09-15T05:13:40.126Z,96448.63
2022-09-15T05:16:09.681Z,96453.63
2022-09-15T05:18:36.176Z,96450.16
2022-09-15T05:21:04.636Z,96455.69
2022-09-15T05:23:33.145Z,96449.19
2022-09-15T05:26:02.329Z,96447.47
2022-09-15T05:28:28.966Z,96453.28
2022-09-15T05:30:55.801Z,96458.84
2022-09-15T05:33:23.571Z,96453.91
2022-09-15T05:35:55.046Z,96459.97
2022-09-15T05:38:22.180Z,96466.25
2022-09-15T05:40:49.203Z,96465.13
2022-09-15T05:43:16.377Z,96463.91
2022-09-15T05:45:42.775Z,96469.44
2022-09-15T05:48:13.483Z,96472.97
2022-09-15T05:50:49.274Z,96454.72
2022-09-15T05:53:15.683Z,96471.75
2022-09-15T05:55:42.429Z,96475.91
2022-09-15T05:58:08.847Z,96465.03
2022-09-15T06:00:35.939Z,96481.63
2022-09-15T06:03:02.744Z,96482.59
2022-09-15T06:05:29.753Z,96482.94
2022-09-15T06:07:56.810Z,96479.47
2022-09-15T06:10:24.962Z,96478.44
2022-09-15T06:12:55.880Z,96472.41
2022-09-15T06:15:23.379Z,96463.44
2022-09-15T06:17:49.888Z,96473.78
2022-09-15T06:20:16.866Z,96472.03
2022-09-15T06:22:43.344Z,96475.56
2022-09-15T06:25:10.928Z,96473.78
2022-09-15T06:27:37.364Z,96474.41
2022-09-15T06:30:04.487Z,96476.13
2022-09-15T06:32:30.973Z,96479.44
2022-09-15T06:34:57.774Z,96471.66
2022-09-15T06:37:24.233Z,96474.66
2022-09-15T06:39:51.127Z,96471.19
2022-09-15T06:42:17.590Z,96478.75
2022-09-15T06:44:43.992Z,96483.84
2022-09-15T06:47:10.732Z,96489.09
2022-09-15T06:49:37.150Z,96495.72
2022-09-15T06:52:05.090Z,96495.78
2022-09-15T06:54:31.567Z,96496.22
2022-09-15T06:56:57.999Z,96490.13
2022-09-15T06:59:24.632Z,96496.97
2022-09-15T07:01:54.972Z,96500.03
2022-09-15T07:04:23.050Z,96496.75
2022-09-15T07:06:50.455Z,96503.16
2022-09-15T07:09:17.052Z,96502.06
2022-09-15T07:11:43.519Z,96512.63
2022-09-15T07:14:10.892Z,96512.13
2022-09-15T07:16:37.336Z,96513.28
2022-09-15T07:19:05.800Z,96521.72
2022-09-15T07:21:32.240Z,96527.63
2022-09-15T07:23:59.971Z,96524.22
2022-09-15T07:26:29.978Z,96533.06
2022-09-15T07:28:59.485Z,96534.78
2022-09-15T07:31:28.198Z,96534.25
2022-09-15T07:33:54.721Z,96530.22
2022-09-15T07:36:21.621Z,96530.47
2022-09-15T07:38:49.757Z,96539.06
2022-09-15T07:41:27.417Z,96521.41
2022-09-15T07:43:57.041Z,96539.31
2022-09-15T07:46:25.094Z,96543.34
2022-09-15T07:48:56.239Z,96536.63
2022-09-15T07:51:23.298Z,96541.41
2022-09-15T07:53:50.285Z,96540.81
2022-09-15T07:56:20.618Z,96547.91
2022-09-15T07:58:48.324Z,96539.03
2022-09-15T08:01:15.901Z,96538.69
2022-09-15T08:03:44.845Z,96544.47
2022-09-15T08:06:12.088Z,96534.34
2022-09-15T08:08:40.189Z,96531.88
2022-09-15T08:11:08.530Z,96529.16
2022-09-15T08:13:35.246Z,96527.72
2022-09-15T08:16:09.650Z,96530.31
2022-09-15T08:18:36.755Z,96538.59
2022-09-15T08:21:07.470Z,96537.47
2022-09-15T08:23:33.913Z,96543.28
2022-09-15T08:26:00.820Z,96545.38
2022-09-15T08:28:27.891Z,96557.41
2022-09-15T08:31:01.944Z,96557.06
2022-09-15T08:33:29.351Z,96562.22
2022-09-15T08:36:01.553Z,96552.66
2022-09-15T08:38:28.118Z,96557.81
2022-09-15T08:41:01.923Z,96562.03
2022-09-15T08:43:37.072Z,96567.34
2022-09-15T08:46:06.168Z,96571.91
2022-09-15T08:49:35.534Z,96573.78
2022-09-15T08:52:16.312Z,96568.75
2022-09-15T08:54:45.717Z,96565.94
2022-09-15T08:57:21.718Z,96589.38
2022-09-15T08:59:48.127Z,96567.75
2022-09-15T09:02:33.420Z,96572.84
2022-09-15T09:05:18.464Z,96576.41
2022-09-15T09:07:44.887Z,96577.66
2022-09-15T09:10:34.485Z,96572.22
2022-09-15T09:13:22.803Z,96573.41
2022-09-15T09:16:14.838Z,96561.69
2022-09-15T09:18:47.573Z,96555.38
2022-09-15T09:21:30.042Z,96567.56
2022-09-15T09:24:32.964Z,96585.91
2022-09-15T09:26:59.431Z,96569.44
2022-09-15T09:29:37.266Z,96580.38
2022-09-15T09:32:11.107Z,96579.75
2022-09-15T09:34:50.496Z,96585.53
2022-09-15T09:37:17.291Z,96575.81
2022-09-15T09:39:43.731Z,96569.31
2022-09-15T09:42:15.772Z,96573.88
2022-09-15T09:44:42.424Z,96579.28
2022-09-15T09:47:08.840Z,96564.63
2022-09-15T09:49:40.875Z,96569.88
2022-09-15T09:52:07.278Z,96582.88
2022-09-15T09:54:35.537Z,96559.88
2022-09-15T09:57:14.002Z,96560.97
2022-09-15T09:59:46.649Z,96568.19
2022-09-15T10:02:16.277Z,96573.63
2022-09-15T10:04:48.363Z,96561.31
2022-09-15T10:07:21.188Z,96568.63
2022-09-15T10:09:50.835Z,96565.94
2022-09-15T10:12:23.070Z,96571.53
2022-09-15T10:14:52.656Z,96566.28
2022-09-15T10:17:23.127Z,96573.66
2022-09-15T10:19:52.755Z,96567.88
2022-09-15T10:22:32.541Z,96564.63
2022-09-15T10:25:01.092Z,96564.44
2022-09-15T10:27:31.981Z,96570.41
2022-09-15T10:30:30.797Z,96562.50
2022-09-15T10:33:23.801Z,96575.91
2022-09-15T10:35:51.180Z,96572.41
2022-09-15T10:38:30.649Z,96575.31
2022-09-15T10:41:13.838Z,96586.41
2022-09-15T10:43:55.652Z,96589.38
2022-09-15T10:46:45.158Z,96589.13
2022-09-15T10:49:28.300Z,96599.25
2022-09-15T10:52:19.320Z,96606.03
2022-09-15T10:55:03.646Z,96604.69
2022-09-15T10:57:58.931Z,96595.69
2022-09-15T11:00:28.482Z,96588.47
2022-09-15T11:03:17.306Z,96592.00
2022-09-15T11:06:09.611Z,96588.97
2022-09-15T11:08:45.342Z,96594.88
2022-09-15T11:11:41.046Z,96590.22
2022-09-15T11:14:25.897Z,96592.22
2022-09-15T11:17:04.738Z,96597.75
2022-09-15T11:19:49.791Z,96589.53
2022-09-15T11:22:35.925Z,96587.38
2022-09-15T11:25:03.835Z,96588.09
2022-09-15T11:27:36.149Z,96582.53
2022-09-15T11:30:20.044Z,96591.59
2022-09-15T11:32:57.301Z,96589.59
2022-09-15T11:35:39.257Z,96580.59
2022-09-15T11:38:21.614Z,96594.06
2022-09-15T11:40:55.131Z,96585.63
2022-09-15T11:43:34.377Z,96588.47
2022-09-15T11:46:02.806Z,96578.03
2022-09-15T11:48:55.347Z,96579.22
2022-09-15T11:51:25.331Z,96575.09
2022-09-15T11:54:01.727Z,96574.09
2022-09-15T11:56:33.643Z,96575.81
2022-09-15T11:59:32.603Z,96576.44
2022-09-15T12:02:20.578Z,96570.78
2022-09-15T12:05:11.309Z,96572.44
2022-09-15T12:07:46.030Z,96566.16
2022-09-15T12:10:21.777Z,96565.03
2022-09-15T12:12:51.537Z,96566.25
2022-09-15T12:15:20.330Z,96561.84
2022-09-15T12:17:54.544Z,96562.50
2022-09-15T12:20:36.447Z,96569.38
2022-09-15T12:23:18.050Z,96573.69
2022-09-15T12:26:01.055Z,96571.94
2022-09-15T12:28:39.822Z,96575.69
2022-09-15T12:31:27.913Z,96571.22
2022-09-15T12:34:14.411Z,96572.84
2022-09-15T12:36:46.922Z,96563.50
2022-09-15T12:39:29.653Z,96569.22
2022-09-15T12:42:12.678Z,96572.28
2022-09-15T12:44:44.723Z,96570.31
2022-09-15T12:47:35.070Z,96563.72
2022-09-15T12:50:08.681Z,96562.75
2022-09-15T12:52:45.371Z,96562.50
2022-09-15T12:55:47.416Z,96558.47
2022-09-15T12:58:30.320Z,96553.66
2022-09-15T13:01:18.965Z,96556.94
2022-09-15T13:03:45.709Z,96544.31
2022-09-15T13:06:24.965Z,96538.72
2022-09-15T13:08:55.383Z,96548.31
2022-09-15T13:11:34.725Z,96539.00
2022-09-15T13:14:04.082Z,96542.00
2022-09-15T13:16:59.595Z,96542.88
2022-09-15T13:19:41.367Z,96533.81
2022-09-15T13:22:19.866Z,96536.00
2022-09-15T13:24:46.220Z,96537.72
2022-09-15T13:27:14.045Z,96539.88
2022-09-15T13:29:49.399Z,96535.00
2022-09-15T13:32:34.287Z,96529.41
2022-09-15T13:35:18.358Z,96523.88
2022-09-15T13:38:22.110Z,96519.91
2022-09-15T13:41:12.941Z,96523.94
2022-09-15T13:43:59.654Z,96538.72
2022-09-15T13:46:59.608Z,96536.59
2022-09-15T13:49:44.175Z,96549.50
2022-09-15T13:52:22.164Z,96566.81
2022-09-15T13:55:29.776Z,96581.50
2022-09-15T14:00:54.241Z,96583.44
2022-09-15T14:03:37.161Z,96598.41
2022-09-15T14:06:22.304Z,96610.59
2022-09-15T14:08:57.090Z,96621.66
2022-09-15T14:11:32.643Z,96625.34
2022-09-15T14:14:00.672Z,96635.66
2022-09-15T14:16:27.854Z,96639.28
2022-09-15T14:18:57.551Z,96641.59
2022-09-15T14:21:34.560Z,96647.88
2022-09-15T14:24:14.652Z,96663.69
2022-09-15T14:26:41.057Z,96641.59
2022-09-15T14:29:07.518Z,96630.44
2022-09-15T14:31:40.989Z,96640.81
2022-09-15T14:34:26.977Z,96655.03
2022-09-15T14:37:01.915Z,96662.47
2022-09-15T14:39:28.494Z,96663.59
2022-09-15T14:41:55.076Z,96649.00
2022-09-15T14:47:27.981Z,96667.34
2022-09-15T14:50:09.769Z,96675.88
2022-09-15T14:52:41.383Z,96674.03
2022-09-15T14:55:14.069Z,96678.72
2022-09-15T14:57:46.149Z,96674.94
2022-09-15T15:00:19.404Z,96682.88
2022-09-15T15:03:03.638Z,96694.97
2022-09-15T15:05:47.758Z,96702.47
2022-09-15T15:08:27.379Z,96702.75
2022-09-15T15:10:54.302Z,96706.72
2022-09-15T15:13:21.210Z,96710.53
2022-09-15T15:15:47.936Z,96707.50
2022-09-15T15:18:46.867Z,96716.41
2022-09-15T15:21:36.258Z,96715.25
2022-09-15T15:24:17.327Z,96722.91
2022-09-15T15:26:47.922Z,96723.47
2022-09-15T15:29:46.058Z,96726.16
2022-09-15T15:32:20.319Z,96728.81
2022-09-15T15:34:55.912Z,96727.28
2022-09-15T15:37:28.963Z,96729.75
2022-09-15T15:39:57.715Z,96728.22
2022-09-15T15:42:24.812Z,96739.00
2022-09-15T15:45:20.083Z,96743.25
2022-09-15T15:47:46.478Z,96739.81
2022-09-15T15:50:21.828Z,96744.16
2022-09-15T15:52:49.548Z,96736.97
2022-09-15T15:55:24.251Z,96746.47
2022-09-15T15:57:53.586Z,96750.28
2022-09-15T16:00:29.643Z,96746.38
2022-09-15T16:02:56.287Z,96748.38
2022-09-15T16:05:27.627Z,96746.94
2022-09-15T16:07:56.098Z,96741.56
2022-09-15T16:10:24.477Z,96747.47
2022-09-15T16:12:50.913Z,96749.34
2022-09-15T16:15:20.373Z,96752.09
2022-09-15T16:17:47.482Z,96763.16
2022-09-15T16:20:25.117Z,96769.47
2022-09-15T16:22:52.333Z,96764.66
2022-09-15T16:25:28.688Z,96772.78
2022-09-15T16:27:55.346Z,96778.56
2022-09-15T16:30:21.751Z,96788.13
2022-09-15T16:32:48.133Z,96781.03
2022-09-15T16:35:33.274Z,96779.75
2022-09-15T16:37:59.784Z,96782.56
2022-09-15T16:40:26.423Z,96782.91
2022-09-15T16:42:52.932Z,96776.69
2022-09-15T16:45:25.866Z,96774.22
2022-09-15T16:47:52.349Z,96768.03
2022-09-15T16:50:18.753Z,96785.28
2022-09-15T16:52:45.204Z,96785.69
2022-09-15T16:55:23.418Z,96780.53
2022-09-15T16:57:50.516Z,96785.72
2022-09-15T17:00:17.501Z,96786.63
2022-09-15T17:02:43.893Z,96784.59
2022-09-15T17:05:32.798Z,96794.69
2022-09-15T17:07:59.237Z,96798.06
2022-09-15T17:10:25.824Z,96793.19
2022-09-15T17:12:52.446Z,96794.63
2022-09-15T17:15:24.449Z,96801.22
2022-09-15T17:17:50.956Z,96812.25
2022-09-15T17:20:18.991Z,96809.84
2022-09-15T17:22:47.098Z,96811.84
2022-09-15T17:25:34.935Z,96813.22
2022-09-15T17:28:02.406Z,96814.47
2022-09-15T17:30:32.204Z,96810.16
2022-09-15T17:33:12.169Z,96816.31
2022-09-15T17:35:38.894Z,96826.44
2022-09-15T17:38:06.172Z,96826.88
2022-09-15T17:40:33.700Z,96834.69
2022-09-15T17:43:00.870Z,96837.28
2022-09-15T17:45:30.103Z,96828.72
2022-09-15T17:47:56.702Z,96833.16
2022-09-15T17:50:25.306Z,96837.16
2022-09-15T17:52:51.757Z,96842.94
2022-09-15T17:55:36.349Z,96848.16
2022-09-15T17:58:03.126Z,96845.72
2022-09-15T18:00:35.439Z,96855.03
2022-09-15T18:03:05.381Z,96851.81
2022-09-15T18:05:34.560Z,96853.81
2022-09-15T18:08:03.657Z,96852.13
2022-09-15T18:10:32.082Z,96852.13
2022-09-15T18:12:59.030Z,96858.56
2022-09-15T18:15:28.250Z,96856.25
2022-09-15T18:17:57.146Z,96853.53
2022-09-15T18:20:28.650Z,96862.81
2022-09-15T18:22:56.318Z,96872.63
2022-09-15T18:25:27.209Z,96878.28
2022-09-15T18:27:54.166Z,96880.28
2022-09-15T18:30:23.153Z,96871.09
2022-09-15T18:32:49.672Z,96882.88
2022-09-15T18:35:18.867Z,96881.63
2022-09-15T18:37:46.816Z,96879.03
2022-09-15T18:40:16.297Z,96895.56
2022-09-15T18:42:43.779Z,96894.31
2022-09-15T18:45:13.221Z,96899.69
2022-09-15T18:47:40.953Z,96903.81
2022-09-15T18:50:07.799Z,96900.75
2022-09-15T18:52:39.760Z,96890.78
2022-09-15T18:55:08.078Z,96902.13
2022-09-15T18:57:39.514Z,96902.25
2022-09-15T19:00:12.512Z,96898.25
2022-09-15T19:02:39.387Z,96899.50
2022-09-15T19:05:07.347Z,96901.94
2022-09-15T19:07:33.796Z,96901.34
2022-09-15T19:10:00.659Z,96906.84
2022-09-15T19:12:27.149Z,96909.75
2022-09-15T19:14:53.629Z,96914.19
2022-09-15T19:17:20.074Z,96912.00
2022-09-15T19:19:46.484Z,96914.34
2022-09-15T19:22:13.108Z,96912.31
2022-09-15T19:24:39.539Z,96929.09
2022-09-15T19:27:07.750Z,96925.38
2022-09-15T19:29:36.145Z,96930.91
2022-09-15T19:32:05.115Z,96932.88
2022-09-15T19:34:31.723Z,96935.47
2022-09-15T19:36:58.195Z,96936.38
2022-09-15T19:39:24.634Z,96934.97
2022-09-15T19:41:51.602Z,96939.72
2022-09-15T19:44:18.075Z,96939.84
2022-09-15T19:46:44.606Z,96944.84
2022-09-15T19:49:11.465Z,96947.16
2022-09-15T19:51:38.282Z,96948.56
2022-09-15T19:54:05.002Z,96948.56
2022-09-15T19:56:31.675Z,96951.88
2022-09-15T19:58:59.111Z,96950.22
2022-09-15T20:01:28.500Z,96958.91
2022-09-15T20:03:56.383Z,96957.53
2022-09-15T20:06:27.604Z,96948.19
2022-09-15T20:08:59.500Z,96948.66
2022-09-15T20:11:27.730Z,96951.56
2022-09-15T20:13:54.924Z,96957.31
2022-09-15T20:16:23.126Z,96955.84
2022-09-15T20:18:51.221Z,96956.88
2022-09-15T20:21:38.827Z,96947.53
2022-09-15T20:24:08.309Z,96949.44
2022-09-15T20:26:34.832Z,96946.63
2022-09-15T20:29:02.519Z,96950.03
2022-09-15T20:31:30.281Z,96960.94
2022-09-15T20:33:56.707Z,96961.03
2022-09-15T20:36:27.438Z,96955.22
2022-09-15T20:38:54.544Z,96959.81
2022-09-15T20:41:24.365Z,96960.72
2022-09-15T20:43:51.309Z,96970.31
2022-09-15T20:46:19.896Z,96969.84
2022-09-15T20:48:46.902Z,96958.53
2022-09-15T20:51:15.895Z,96964.91
2022-09-15T20:53:47.644Z,96964.91
2022-09-15T20:56:15.402Z,96963.03
2022-09-15T20:58:42.431Z,96960.19
2022-09-15T21:01:13.619Z,96967.34
2022-09-15T21:03:42.318Z,96972.34
2022-09-15T21:06:11.325Z,96972.84
2022-09-15T21:08:37.851Z,96973.16
2022-09-15T21:11:05.833Z,96970.66
2022-09-15T21:13:36.176Z,96970.81
2022-09-15T21:16:07.796Z,96980.38
2022-09-15T21:18:38.908Z,96969.31
2022-09-15T21:21:16.167Z,96973.56
2022-09-15T21:23:43.710Z,96974.88
2022-09-15T21:26:13.003Z,96979.38
2022-09-15T21:28:39.682Z,96977.53
2022-09-15T21:31:09.027Z,96982.34
2022-09-15T21:33:36.563Z,96982.69
2022-09-15T21:36:10.422Z,96983.56
2022-09-15T21:38:39.015Z,96993.94
2022-09-15T21:41:06.282Z,96977.81
2022-09-15T21:43:36.011Z,96981.31
2022-09-15T21:46:04.788Z,96983.69
2022-09-15T21:48:35.288Z,96981.00
2022-09-15T21:51:03.911Z,96974.53
2022-09-15T21:53:30.543Z,96971.91
2022-09-15T21:56:00.993Z,96975.88
2022-09-15T21:58:31.959Z,96972.03
2022-09-15T22:00:58.428Z,96978.50
2022-09-15T22:03:24.900Z,96980.59
2022-09-15T22:05:51.846Z,96977.41
2022-09-15T22:08:18.349Z,96970.25
2022-09-15T22:10:44.872Z,96977.84
2022-09-15T22:13:11.744Z,96979.94
2022-09-15T22:15:38.190Z,96974.84
2022-09-15T22:18:04.798Z,96975.09
2022-09-15T22:20:31.227Z,96980.41
2022-09-15T22:23:00.671Z,96979.31
2022-09-15T22:25:27.383Z,96976.88
2022-09-15T22:27:53.781Z,96978.41
2022-09-15T22:30:20.202Z,96974.78
2022-09-15T22:32:46.693Z,96971.56
2022-09-15T22:35:13.260Z,96964.03
2022-09-15T22:37:39.756Z,96967.97
2022-09-15T22:40:06.651Z,96966.56
2022-09-15T22:42:33.080Z,96963.69
2022-09-15T22:44:59.557Z,96971.63
2022-09-15T22:47:25.979Z,96968.56
2022-09-15T22:49:52.442Z,96969.44
2022-09-15T22:52:19.671Z,96970.97
2022-09-15T22:54:46.196Z,96967.25
2022-09-15T22:57:12.597Z,96972.75
2022-09-15T22:59:39.085Z,96962.06
2022-09-15T23:02:05.615Z,96964.94
2022-09-15T23:04:32.104Z,96961.13
2022-09-15T23:06:58.536Z,96968.69
2022-09-15T23:09:24.947Z,96970.16
2022-09-15T23:11:51.360Z,96965.19
2022-09-15T23:14:18.088Z,96960.03
2022-09-15T23:16:44.806Z,96961.56
2022-09-15T23:19:13.146Z,96958.50
2022-09-15T23:21:40.034Z,96962.44
2022-09-15T23:24:06.736Z,96952.81
2022-09-15T23:26:33.198Z,96960.91
2022-09-15T23:28:59.644Z,96963.66
2022-09-15T23:31:26.132Z,96953.78
2022-09-15T23:33:52.588Z,96955.44
2022-09-15T23:36:19.747Z,96961.81
2022-09-15T23:38:46.902Z,96963.78
2022-09-15T23:41:14.556Z,96958.75
2022-09-15T23:43:41.135Z,96960.59
2022-09-15T23:46:07.869Z,96953.31
2022-09-15T23:48:34.790Z,96955.75
2022-09-15T23:51:02.056Z,96953.66
2022-09-15T23:53:29.443Z,96950.16
2022-09-15T23:55:56.578Z,96941.59
2022-09-15T23:58:23.088Z,96944.34
